Portada
METAR-TAF:

METAR-TAF

Aeroports :

Surat Thani, Tailàndia

latitud: 09-07N, longitud: 099-21E, altitud: 10 m

Observació

L'informe es va fer fa 35 minuts, a les 04:00 UTC
Vent 5 kt del Sud/Sud-Oest, variant entre Sud i Sud-Oest
Temperatura 28°C
Humitat 89%
Pressió 1010 hPa
Visibilitat 10 km o més
Núvols disperses a una alçada de 2000 ft

METAR: VTSB 010400Z 21005KT 170V230 9999 SCT020 28/26 Q1010 NOSIG

Hora: 11:35 (04:35 UTC)

Pronòstic

L'informe es va fer fa 5 hores i 35 minuts, a les 23:00 UTC
Pronòstic vàlid del 01 a les 00 UTC al 01 a les 24 UTC
Vent 13 kt del Oest
Visibilitat 10 km o més
Núvols disperses a una alçada de 2000 ft
Temporalment
l' 01 a les 00 UTC al 01 a les 12 UTC
Visibilitat: 4000 m
pluja

TAF: VTSB 312300Z 0100/0124 26013KT 9999 SCT020 TEMPO 0100/0112 4000 RA

Observacions i pronòstics meteorològics de més de 4000 aeroports (METAR i TAF).

Les estacions disponibles són els punts grocs i vermells al mapa.

Posi el ratolí al punt desitjat per veure el nom de l'estació.

Feu clic per veure les observacions i els pronòstics meteorològics.

Per canviar el mapa: feu clic els botons verds amb una creu de color negre per apropar; al botó verd amb un guió per allunyar la imatge; o en les fletxes verdes per a mapes adjacents.


METAR-TAF: